Time;durP1;ratioP1;P1;durP2;ratioP2;P2;SDS_P1;SDS_P2;PMS_P1;PMS_P2;Temp;Humidity;BMP_temperature;BMP_pressure;BME280_temperature;BME280_humidity;BME280_pressure;Samples;Min_cycle;Max_cycle;Signal;HPM_P1;HPM_P2
2021/10/19 00:02:18;;;;;;;1.95;0.60;;;12.00;61.40;;;;;;4969046;28;20034;-87
2021/10/19 00:04:44;;;;;;;0.60;0.40;;;12.00;61.40;;;;;;4981195;28;20103;-89
2021/10/19 00:07:11;;;;;;;0.50;0.45;;;12.00;61.40;;;;;;5000653;28;20158;-89
2021/10/19 00:09:41;;;;;;;0.70;0.60;;;12.00;61.40;;;;;;4972348;28;20121;-91
2021/10/19 00:12:07;;;;;;;0.55;0.47;;;12.00;61.50;;;;;;4970011;28;20030;-91
2021/10/19 00:14:33;;;;;;;0.95;0.70;;;12.00;61.50;;;;;;4967227;28;20030;-87
2021/10/19 00:16:58;;;;;;;0.70;0.50;;;12.00;61.50;;;;;;4967546;28;20033;-90
2021/10/19 00:19:24;;;;;;;1.48;0.63;;;12.00;61.50;;;;;;4972227;28;20026;-86
2021/10/19 00:21:50;;;;;;;1.23;0.47;;;12.00;61.50;;;;;;4983679;28;20520;-89
2021/10/19 00:24:16;;;;;;;0.68;0.68;;;12.00;61.50;;;;;;4968518;28;20034;-88
2021/10/19 00:26:42;;;;;;;0.60;0.60;;;12.00;61.50;;;;;;4987927;28;20038;-88
2021/10/19 00:29:08;;;;;;;1.45;0.57;;;12.00;61.40;;;;;;4986184;28;20126;-89
2021/10/19 00:31:34;;;;;;;1.35;0.63;;;12.00;61.40;;;;;;4983889;28;20038;-89
2021/10/19 00:34:00;;;;;;;1.67;0.80;;;12.00;61.40;;;;;;4970272;28;20492;-88
2021/10/19 00:36:26;;;;;;;2.70;0.70;;;12.00;61.40;;;;;;4970811;28;20049;-88
2021/10/19 00:38:51;;;;;;;1.90;0.80;;;12.00;61.50;;;;;;4971018;28;20025;-87
2021/10/19 00:41:17;;;;;;;1.05;0.60;;;12.00;61.40;;;;;;4984297;28;20579;-88
2021/10/19 00:43:43;;;;;;;3.35;0.70;;;12.00;61.50;;;;;;4967606;28;20061;-88
2021/10/19 00:46:14;;;;;;;1.02;0.70;;;12.00;61.60;;;;;;4984082;28;20149;-86
2021/10/19 00:48:42;;;;;;;1.23;0.52;;;12.00;61.60;;;;;;4966161;28;20085;-88
2021/10/19 00:51:10;;;;;;;1.00;0.85;;;12.00;61.70;;;;;;4975793;28;20404;-88
2021/10/19 00:53:36;;;;;;;0.85;0.68;;;12.00;61.80;;;;;;4962814;28;20062;-90
2021/10/19 00:56:02;;;;;;;1.85;0.73;;;11.90;61.80;;;;;;4970423;28;20129;-86
2021/10/19 00:58:29;;;;;;;0.77;0.52;;;11.90;61.80;;;;;;4984916;28;20034;-88
2021/10/19 01:00:54;;;;;;;1.70;0.90;;;11.90;61.80;;;;;;4972355;28;20030;-89
2021/10/19 01:03:20;;;;;;;1.13;0.60;;;12.00;61.90;;;;;;4983815;28;20084;-88
2021/10/19 01:05:46;;;;;;;4.45;0.75;;;12.00;61.90;;;;;;4990199;28;20492;-87
2021/10/19 01:08:13;;;;;;;0.85;0.65;;;12.00;61.90;;;;;;4983270;28;20037;-87
2021/10/19 01:10:39;;;;;;;0.52;0.50;;;12.00;61.90;;;;;;5001815;28;20125;-86
2021/10/19 01:13:05;;;;;;;1.38;0.55;;;11.90;62.00;;;;;;4972199;28;20030;-86
2021/10/19 01:15:33;;;;;;;1.00;0.80;;;11.90;62.00;;;;;;4982338;28;20026;-87
2021/10/19 01:18:00;;;;;;;1.13;0.60;;;11.90;62.00;;;;;;4981936;28;20121;-84
2021/10/19 01:20:27;;;;;;;0.88;0.70;;;11.90;62.00;;;;;;4985506;28;20082;-85
2021/10/19 01:22:54;;;;;;;1.42;0.80;;;11.90;62.00;;;;;;4984593;28;20049;-87
2021/10/19 01:25:22;;;;;;;0.75;0.68;;;11.90;62.00;;;;;;5000351;28;20489;-85
2021/10/19 01:27:51;;;;;;;0.63;0.63;;;11.90;62.10;;;;;;4968572;28;20046;-86
2021/10/19 01:30:18;;;;;;;1.10;0.57;;;12.00;62.20;;;;;;5001489;28;20039;-81
2021/10/19 01:32:44;;;;;;;0.98;0.75;;;12.00;62.10;;;;;;4954888;28;20381;-86
2021/10/19 01:35:11;;;;;;;1.17;0.80;;;12.00;62.10;;;;;;4972468;28;20045;-86
2021/10/19 01:37:37;;;;;;;2.55;0.63;;;12.00;62.00;;;;;;5002403;28;20034;-85
2021/10/19 01:40:11;;;;;;;2.08;0.85;;;12.00;62.00;;;;;;4967267;28;20030;-86
2021/10/19 01:42:37;;;;;;;0.57;0.57;;;12.00;62.00;;;;;;4983806;28;20041;-85
2021/10/19 01:45:10;;;;;;;1.02;0.63;;;12.00;62.00;;;;;;4983455;28;20508;-86
2021/10/19 01:47:36;;;;;;;1.65;0.85;;;12.00;62.10;;;;;;4968170;28;20030;-86
2021/10/19 01:50:02;;;;;;;1.23;0.60;;;12.00;62.20;;;;;;4966786;28;20042;-86
2021/10/19 01:52:28;;;;;;;0.93;0.68;;;12.00;62.30;;;;;;4967328;28;20033;-86
2021/10/19 01:54:54;;;;;;;0.70;0.60;;;11.90;62.30;;;;;;4972553;28;20369;-86
2021/10/19 01:57:20;;;;;;;1.42;0.90;;;12.00;62.30;;;;;;4987078;28;20089;-86
2021/10/19 01:59:46;;;;;;;1.23;0.70;;;12.00;62.30;;;;;;5005308;28;20033;-86
2021/10/19 02:02:12;;;;;;;1.50;0.80;;;12.00;62.30;;;;;;4970170;28;20034;-85
2021/10/19 02:04:38;;;;;;;1.17;0.60;;;12.00;62.30;;;;;;4992796;28;20092;-83
2021/10/19 02:07:04;;;;;;;0.52;0.52;;;12.00;62.20;;;;;;4990309;28;20088;-85
2021/10/19 02:09:30;;;;;;;1.73;0.77;;;12.00;62.20;;;;;;4968130;28;20030;-86
2021/10/19 02:11:55;;;;;;;0.82;0.60;;;12.00;62.20;;;;;;4986135;28;20026;-84
2021/10/19 02:14:22;;;;;;;0.88;0.55;;;12.00;62.30;;;;;;4968424;28;20030;-85
2021/10/19 02:16:47;;;;;;;0.55;0.55;;;12.00;62.30;;;;;;4987137;28;20073;-84
2021/10/19 02:19:13;;;;;;;3.33;0.70;;;11.90;62.40;;;;;;4975006;28;20061;-85
2021/10/19 02:21:39;;;;;;;1.30;0.70;;;12.00;62.50;;;;;;5004410;28;20030;-85
2021/10/19 02:24:05;;;;;;;0.55;0.55;;;12.00;62.50;;;;;;4972366;28;20037;-87
2021/10/19 02:26:31;;;;;;;1.25;0.90;;;12.00;62.50;;;;;;4974086;28;20121;-88
2021/10/19 02:28:57;;;;;;;0.77;0.75;;;11.90;62.60;;;;;;4974115;28;20030;-85
2021/10/19 02:31:23;;;;;;;1.02;0.70;;;11.90;62.70;;;;;;5004529;28;20124;-87
2021/10/19 02:33:49;;;;;;;2.03;0.70;;;11.90;62.80;;;;;;4986457;28;20057;-85
2021/10/19 02:36:14;;;;;;;1.13;0.50;;;11.90;62.80;;;;;;4970137;28;20030;-86
2021/10/19 02:38:40;;;;;;;2.28;0.63;;;11.90;63.00;;;;;;4985221;28;20377;-85
2021/10/19 02:41:06;;;;;;;1.77;0.70;;;11.90;63.00;;;;;;4986251;28;20026;-86
2021/10/19 02:43:32;;;;;;;0.60;0.60;;;12.00;63.00;;;;;;5003331;28;20026;-86
2021/10/19 02:45:58;;;;;;;0.40;0.40;;;12.00;62.70;;;;;;4984193;28;20433;-85
2021/10/19 02:48:24;;;;;;;2.17;0.50;;;12.00;62.80;;;;;;5005635;28;20457;-87
2021/10/19 02:50:50;;;;;;;1.58;0.77;;;12.00;62.60;;;;;;4986286;28;20044;-86
2021/10/19 02:53:15;;;;;;;2.28;0.85;;;12.00;62.50;;;;;;4990425;28;20125;-85
2021/10/19 02:55:41;;;;;;;1.02;0.45;;;12.00;62.20;;;;;;4967321;28;20057;-84
2021/10/19 02:58:07;;;;;;;1.38;0.50;;;12.00;62.10;;;;;;4970091;28;20026;-86
2021/10/19 03:00:33;;;;;;;0.57;0.40;;;12.10;62.20;;;;;;4971657;28;20037;-85
2021/10/19 03:02:59;;;;;;;0.50;0.50;;;12.00;62.10;;;;;;4984344;28;20042;-84
2021/10/19 03:05:25;;;;;;;0.55;0.40;;;12.00;61.70;;;;;;4984542;28;20031;-86
2021/10/19 03:07:51;;;;;;;0.40;0.40;;;12.00;61.80;;;;;;4984101;28;20033;-86
2021/10/19 03:10:17;;;;;;;0.45;0.45;;;12.00;61.70;;;;;;4983921;28;20037;-86
2021/10/19 03:12:43;;;;;;;0.43;0.43;;;12.10;62.00;;;;;;4986676;28;20045;-86
2021/10/19 03:15:09;;;;;;;1.02;0.50;;;12.00;62.00;;;;;;4988076;28;20512;-87
2021/10/19 03:17:34;;;;;;;1.00;0.40;;;12.10;62.00;;;;;;4974377;28;20117;-85
2021/10/19 03:20:00;;;;;;;1.40;0.70;;;12.00;61.80;;;;;;4986087;28;20484;-86
2021/10/19 03:22:26;;;;;;;0.40;0.40;;;12.00;61.70;;;;;;4983819;28;20042;-86
2021/10/19 03:24:52;;;;;;;1.30;0.50;;;12.10;61.70;;;;;;4973365;28;20480;-86
2021/10/19 03:27:18;;;;;;;0.60;0.47;;;12.10;61.50;;;;;;4984131;28;20515;-84
2021/10/19 03:29:44;;;;;;;0.50;0.50;;;12.00;61.40;;;;;;4967588;28;20033;-86
2021/10/19 03:32:10;;;;;;;0.70;0.70;;;12.00;61.40;;;;;;4999169;28;20554;-83
2021/10/19 03:34:37;;;;;;;0.90;0.60;;;12.00;61.40;;;;;;5001129;28;20037;-86
2021/10/19 03:37:04;;;;;;;0.43;0.43;;;12.00;61.10;;;;;;4959494;28;20120;-87
2021/10/19 03:39:29;;;;;;;0.65;0.65;;;12.00;60.90;;;;;;4967176;28;20042;-85
2021/10/19 03:41:55;;;;;;;0.60;0.60;;;12.00;60.80;;;;;;5001372;28;20417;-87
2021/10/19 03:44:21;;;;;;;0.50;0.50;;;11.90;60.90;;;;;;4970641;28;20124;-85
2021/10/19 03:46:47;;;;;;;0.70;0.60;;;11.90;60.70;;;;;;5000292;28;20161;-87
2021/10/19 03:49:13;;;;;;;1.20;0.50;;;11.90;60.50;;;;;;4985675;28;20033;-88
2021/10/19 03:51:39;;;;;;;1.00;0.80;;;11.90;60.20;;;;;;4970479;28;20121;-86
2021/10/19 03:54:05;;;;;;;0.57;0.50;;;11.80;60.00;;;;;;4983131;28;20042;-87
2021/10/19 03:56:31;;;;;;;0.43;0.40;;;11.90;60.00;;;;;;4972132;28;20378;-89
2021/10/19 03:58:57;;;;;;;0.80;0.30;;;11.80;59.80;;;;;;4983623;28;20026;-89
2021/10/19 04:01:23;;;;;;;0.50;0.50;;;11.80;59.90;;;;;;4960671;28;20455;-87
2021/10/19 04:03:48;;;;;;;0.52;0.50;;;11.80;59.80;;;;;;5003526;28;20041;-88
2021/10/19 04:06:14;;;;;;;0.60;0.60;;;11.70;59.70;;;;;;4971294;28;20465;-90
2021/10/19 04:08:47;;;;;;;0.90;0.73;;;11.70;59.70;;;;;;4989371;28;20037;-89
2021/10/19 04:11:13;;;;;;;2.92;0.40;;;11.70;59.40;;;;;;4995999;28;20041;-89
2021/10/19 04:13:48;;;;;;;0.73;0.45;;;11.70;59.30;;;;;;4986057;28;20133;-88
2021/10/19 04:16:14;;;;;;;0.68;0.68;;;11.70;59.10;;;;;;4970544;28;20455;-83
2021/10/19 04:18:40;;;;;;;1.40;0.52;;;11.70;59.00;;;;;;4968386;28;20046;-88
2021/10/19 04:21:06;;;;;;;0.80;0.80;;;11.70;59.00;;;;;;4969859;28;20057;-89
2021/10/19 04:23:32;;;;;;;1.02;0.65;;;11.70;59.00;;;;;;4988629;28;20042;-86
2021/10/19 04:25:58;;;;;;;0.80;0.70;;;11.70;59.00;;;;;;5005075;28;20736;-82
2021/10/19 04:28:23;;;;;;;0.82;0.82;;;11.60;58.90;;;;;;4977516;28;20130;-83
2021/10/19 04:30:51;;;;;;;0.70;0.63;;;11.60;58.90;;;;;;4970112;28;20025;-86
2021/10/19 04:33:17;;;;;;;2.58;0.77;;;11.60;59.00;;;;;;5001651;28;20041;-88
2021/10/19 04:35:43;;;;;;;0.80;0.70;;;11.60;59.20;;;;;;4976067;28;20029;-88
2021/10/19 04:38:09;;;;;;;1.10;0.60;;;11.60;59.20;;;;;;4967903;28;20030;-87
2021/10/19 04:40:35;;;;;;;0.80;0.80;;;11.60;59.10;;;;;;4966771;28;20413;-87
2021/10/19 04:43:01;;;;;;;1.75;0.73;;;11.60;59.20;;;;;;4998770;28;20038;-85
2021/10/19 04:45:28;;;;;;;0.70;0.70;;;11.50;59.20;;;;;;4987254;28;20112;-83
2021/10/19 04:48:00;;;;;;;1.00;0.90;;;11.50;59.10;;;;;;4985514;28;20029;-81
2021/10/19 04:50:27;;;;;;;6.53;0.80;;;11.50;59.10;;;;;;5001608;28;20571;-83
2021/10/19 04:52:53;;;;;;;1.10;0.77;;;11.50;59.20;;;;;;4999724;28;20038;-83
2021/10/19 04:55:19;;;;;;;0.85;0.85;;;11.60;59.20;;;;;;4998384;28;20042;-82
2021/10/19 04:57:45;;;;;;;1.10;0.75;;;11.60;59.20;;;;;;4983011;28;20502;-83
2021/10/19 05:00:11;;;;;;;1.20;0.93;;;11.60;59.30;;;;;;5002314;28;20033;-83
2021/10/19 05:02:45;;;;;;;0.90;0.88;;;11.60;59.10;;;;;;4984093;28;20033;-83
2021/10/19 05:05:12;;;;;;;1.00;0.88;;;11.60;59.20;;;;;;5000631;28;20516;-83
2021/10/19 05:07:38;;;;;;;0.80;0.80;;;11.60;59.30;;;;;;5001117;28;20046;-80
2021/10/19 05:10:04;;;;;;;0.80;0.80;;;11.60;59.20;;;;;;5001034;28;20045;-83
2021/10/19 05:12:30;;;;;;;1.55;0.90;;;11.60;59.10;;;;;;4999916;28;20036;-82
2021/10/19 05:14:57;;;;;;;0.80;0.80;;;11.60;58.90;;;;;;4999584;28;20117;-82
2021/10/19 05:17:23;;;;;;;1.00;0.90;;;11.60;59.00;;;;;;5002481;28;20046;-82
2021/10/19 05:19:54;;;;;;;0.90;0.90;;;11.60;59.00;;;;;;4984940;28;20026;-82
2021/10/19 05:22:24;;;;;;;1.00;0.90;;;11.60;59.30;;;;;;5001886;28;20030;-82
2021/10/19 05:24:51;;;;;;;2.25;0.88;;;11.60;59.60;;;;;;5002542;28;20583;-83
2021/10/19 05:27:17;;;;;;;0.68;0.68;;;11.60;59.80;;;;;;5000514;28;20032;-83
2021/10/19 05:29:42;;;;;;;1.70;0.73;;;11.60;60.00;;;;;;4999878;28;20120;-83
2021/10/19 05:32:09;;;;;;;0.93;0.70;;;11.60;60.20;;;;;;5004421;28;20569;-82
2021/10/19 05:34:35;;;;;;;0.70;0.70;;;11.60;60.20;;;;;;4987412;28;20026;-82
2021/10/19 05:37:01;;;;;;;2.35;0.90;;;11.60;60.10;;;;;;4989079;28;20034;-83
2021/10/19 05:39:27;;;;;;;0.75;0.75;;;11.60;60.00;;;;;;5010247;28;20116;-83
2021/10/19 05:41:52;;;;;;;0.70;0.70;;;11.60;60.00;;;;;;5006006;28;20030;-83
2021/10/19 05:44:18;;;;;;;0.77;0.77;;;11.60;60.00;;;;;;4985861;28;20112;-83
2021/10/19 05:46:44;;;;;;;0.75;0.75;;;11.60;60.00;;;;;;5005350;28;20377;-83
2021/10/19 05:49:10;;;;;;;0.95;0.90;;;11.60;60.00;;;;;;5002569;28;20060;-83
2021/10/19 05:51:36;;;;;;;1.13;0.80;;;11.60;60.00;;;;;;4985117;28;20468;-84
2021/10/19 05:54:02;;;;;;;0.70;0.70;;;11.60;60.00;;;;;;5004336;28;20038;-84
2021/10/19 05:56:28;;;;;;;0.80;0.60;;;11.60;59.90;;;;;;4985260;28;20141;-83
2021/10/19 05:58:54;;;;;;;0.90;0.90;;;11.60;59.80;;;;;;5004438;28;20145;-83
2021/10/19 06:01:20;;;;;;;0.80;0.80;;;11.60;59.60;;;;;;4985384;28;20057;-84
2021/10/19 06:03:46;;;;;;;0.70;0.70;;;11.60;59.60;;;;;;5001998;28;20034;-84
2021/10/19 06:06:15;;;;;;;2.25;0.93;;;11.60;59.60;;;;;;5004089;28;20124;-84
2021/10/19 06:08:41;;;;;;;1.98;1.58;;;11.60;59.60;;;;;;5003171;28;20034;-83
2021/10/19 06:11:07;;;;;;;1.50;1.40;;;11.70;59.80;;;;;;4985283;28;20030;-85
2021/10/19 06:13:33;;;;;;;1.67;1.20;;;11.60;60.00;;;;;;4973902;28;20052;-84
2021/10/19 06:15:59;;;;;;;3.20;1.23;;;11.70;59.90;;;;;;5001537;28;20037;-84
2021/10/19 06:18:25;;;;;;;1.55;1.27;;;11.70;59.80;;;;;;4986025;28;20041;-83
2021/10/19 06:20:51;;;;;;;1.08;1.08;;;11.80;59.80;;;;;;5003469;28;20029;-83
2021/10/19 06:23:18;;;;;;;1.30;1.20;;;11.70;59.80;;;;;;4985355;28;20056;-83
2021/10/19 06:25:45;;;;;;;2.38;1.38;;;11.80;59.90;;;;;;4973106;28;20040;-82
2021/10/19 06:28:12;;;;;;;1.27;1.10;;;11.80;59.90;;;;;;5001767;28;20440;-82
2021/10/19 06:30:38;;;;;;;1.35;1.25;;;11.80;59.80;;;;;;5002940;28;20132;-82
2021/10/19 06:33:04;;;;;;;1.77;1.10;;;11.80;59.70;;;;;;5001609;28;20026;-83
2021/10/19 06:35:30;;;;;;;2.00;1.20;;;11.80;59.70;;;;;;4986146;28;20030;-83
2021/10/19 06:37:56;;;;;;;1.05;0.88;;;11.80;59.50;;;;;;4990206;28;20531;-83
2021/10/19 06:40:22;;;;;;;1.17;1.00;;;11.80;59.30;;;;;;4967889;28;20030;-82
2021/10/19 06:42:48;;;;;;;0.90;0.90;;;11.80;59.20;;;;;;4984656;28;20072;-82
2021/10/19 06:45:14;;;;;;;1.67;0.80;;;11.80;59.10;;;;;;5003658;28;20038;-82
2021/10/19 06:47:40;;;;;;;1.23;0.98;;;11.90;59.20;;;;;;5002849;28;20034;-83
2021/10/19 06:50:07;;;;;;;1.10;0.85;;;11.90;59.10;;;;;;4993807;28;20121;-83
2021/10/19 06:52:36;;;;;;;0.80;0.80;;;11.90;59.10;;;;;;5004308;28;20037;-81
2021/10/19 06:55:06;;;;;;;1.73;1.00;;;11.90;58.80;;;;;;5003517;28;20689;-82
2021/10/19 06:57:41;;;;;;;0.95;0.95;;;11.90;58.80;;;;;;5002332;28;20136;-82
2021/10/19 07:00:09;;;;;;;2.40;0.90;;;12.00;58.70;;;;;;5004545;28;20057;-82
2021/10/19 07:02:35;;;;;;;1.67;1.00;;;12.10;58.50;;;;;;5000606;28;20072;-82
2021/10/19 07:05:01;;;;;;;0.80;0.80;;;12.10;58.40;;;;;;5000860;28;20038;-82
2021/10/19 07:07:27;;;;;;;2.40;0.90;;;12.10;58.10;;;;;;5001789;28;20421;-84
2021/10/19 07:09:53;;;;;;;0.93;0.80;;;12.20;57.90;;;;;;5002829;28;20042;-82
2021/10/19 07:12:19;;;;;;;1.33;0.60;;;12.20;57.60;;;;;;5003114;28;20104;-84
2021/10/19 07:14:44;;;;;;;1.70;0.70;;;12.30;57.60;;;;;;4977268;28;20117;-82
2021/10/19 07:17:10;;;;;;;2.25;0.80;;;12.30;57.80;;;;;;5002804;28;20034;-82
2021/10/19 07:19:38;;;;;;;1.88;0.60;;;12.40;58.60;;;;;;5002667;28;20112;-81
2021/10/19 07:22:04;;;;;;;0.60;0.60;;;12.40;58.60;;;;;;4984394;28;20084;-81
2021/10/19 07:24:30;;;;;;;1.02;0.70;;;12.40;57.90;;;;;;5003775;28;20039;-82
2021/10/19 07:26:57;;;;;;;0.70;0.55;;;12.40;57.60;;;;;;5001993;28;20496;-82
2021/10/19 07:29:23;;;;;;;0.80;0.70;;;12.40;57.60;;;;;;4982910;28;20033;-82
2021/10/19 07:31:49;;;;;;;1.75;1.00;;;12.30;58.30;;;;;;4984020;28;20084;-83
2021/10/19 07:34:15;;;;;;;3.47;1.00;;;12.30;58.60;;;;;;5003481;28;20030;-81
2021/10/19 07:36:41;;;;;;;1.45;1.02;;;12.20;58.80;;;;;;4999828;28;20469;-82
2021/10/19 07:39:07;;;;;;;3.00;1.17;;;12.20;59.30;;;;;;5001292;28;20574;-81
2021/10/19 07:41:37;;;;;;;1.13;1.00;;;12.20;59.50;;;;;;5002426;28;20470;-82
2021/10/19 07:44:04;;;;;;;0.85;0.80;;;12.20;59.50;;;;;;4981913;28;20045;-81
2021/10/19 07:46:33;;;;;;;1.02;1.02;;;12.30;59.80;;;;;;4985457;28;20120;-82
2021/10/19 07:48:59;;;;;;;2.58;1.35;;;12.30;59.80;;;;;;5011482;28;20447;-81
2021/10/19 07:51:25;;;;;;;1.77;0.90;;;12.30;59.30;;;;;;5008860;28;20037;-81
2021/10/19 07:53:51;;;;;;;1.80;1.00;;;12.30;59.30;;;;;;5013192;28;20390;-82
2021/10/19 07:56:20;;;;;;;1.13;1.02;;;12.30;60.10;;;;;;5013062;28;20080;-82
2021/10/19 07:58:47;;;;;;;1.00;0.90;;;12.30;60.70;;;;;;4995487;28;20057;-82
2021/10/19 08:01:15;;;;;;;1.88;0.90;;;12.30;60.70;;;;;;5022363;28;20389;-81
2021/10/19 08:03:40;;;;;;;2.03;1.10;;;12.30;61.00;;;;;;4995297;28;20488;-82
2021/10/19 08:06:07;;;;;;;5.53;3.50;;;12.30;61.20;;;;;;5012577;28;20053;-82
2021/10/19 08:08:34;;;;;;;3.83;2.83;;;12.30;61.60;;;;;;5012437;28;20393;-81
2021/10/19 08:11:01;;;;;;;3.25;2.25;;;12.30;61.70;;;;;;5009692;28;20037;-82
2021/10/19 08:13:27;;;;;;;4.53;2.60;;;12.30;61.80;;;;;;5012311;28;20040;-81
2021/10/19 08:15:53;;;;;;;1.90;1.50;;;12.30;61.60;;;;;;5010265;28;20065;-82
2021/10/19 08:18:19;;;;;;;1.80;1.40;;;12.50;61.70;;;;;;5011968;28;20038;-82
2021/10/19 08:20:45;;;;;;;1.75;1.30;;;12.50;61.60;;;;;;5010631;28;20049;-82
2021/10/19 08:23:11;;;;;;;2.17;1.23;;;12.50;61.20;;;;;;5007533;28;20045;-82
2021/10/19 08:25:38;;;;;;;2.80;1.38;;;12.50;61.00;;;;;;4982223;28;20399;-82
2021/10/19 08:28:05;;;;;;;1.63;1.17;;;12.60;61.10;;;;;;5012754;28;20053;-82
2021/10/19 08:30:31;;;;;;;2.38;1.13;;;12.60;61.00;;;;;;5009512;28;20534;-81
2021/10/19 08:32:57;;;;;;;1.10;1.00;;;12.60;60.50;;;;;;5011910;28;20419;-82
2021/10/19 08:35:23;;;;;;;1.50;1.13;;;12.60;60.50;;;;;;5011906;28;20496;-82
2021/10/19 08:37:51;;;;;;;1.40;1.17;;;12.60;60.50;;;;;;4994366;28;20038;-82
2021/10/19 08:40:18;;;;;;;2.20;1.33;;;12.60;60.40;;;;;;5004287;28;20044;-83
2021/10/19 08:42:44;;;;;;;4.50;1.55;;;12.60;60.30;;;;;;5009584;28;20498;-83
2021/10/19 08:45:12;;;;;;;2.28;1.33;;;12.60;60.20;;;;;;4994915;28;20447;-83
2021/10/19 08:47:43;;;;;;;4.20;1.20;;;12.60;60.10;;;;;;5012623;28;20052;-83
2021/10/19 08:50:10;;;;;;;2.60;1.35;;;12.60;60.00;;;;;;5009481;28;20492;-83
2021/10/19 08:52:37;;;;;;;2.30;1.40;;;12.50;60.30;;;;;;4993083;28;20495;-83
2021/10/19 08:55:03;;;;;;;1.65;1.17;;;12.50;60.60;;;;;;4983041;28;20030;-84
2021/10/19 08:57:29;;;;;;;1.60;1.05;;;12.60;60.90;;;;;;4968123;28;20053;-86
2021/10/19 08:59:55;;;;;;;3.45;1.60;;;12.50;60.70;;;;;;4982393;28;20038;-84
2021/10/19 09:02:35;;;;;;;2.58;1.10;;;12.50;60.40;;;;;;5000249;28;20027;-86
2021/10/19 09:05:03;;;;;;;1.13;1.00;;;12.50;60.00;;;;;;4973005;28;20033;-85
2021/10/19 09:07:29;;;;;;;0.80;0.80;;;12.50;59.90;;;;;;4970167;28;20033;-86
2021/10/19 09:09:55;;;;;;;0.77;0.57;;;12.40;59.60;;;;;;4987989;28;20445;-87
2021/10/19 09:12:24;;;;;;;2.50;0.80;;;12.40;59.10;;;;;;4977612;28;20034;-84
2021/10/19 09:14:50;;;;;;;0.73;0.65;;;12.30;58.80;;;;;;4994719;28;20126;-88
2021/10/19 09:17:16;;;;;;;0.88;0.50;;;12.30;58.10;;;;;;4986837;28;20054;-88
2021/10/19 09:19:44;;;;;;;2.20;0.63;;;12.30;57.80;;;;;;4970970;28;20026;-82
2021/10/19 09:22:14;;;;;;;0.40;0.40;;;12.30;57.50;;;;;;5004885;28;20041;-87
2021/10/19 09:24:44;;;;;;;4.38;0.73;;;12.20;57.10;;;;;;4984828;28;20084;-83
2021/10/19 09:27:15;;;;;;;3.75;0.45;;;12.20;57.50;;;;;;4991899;28;20045;-86
2021/10/19 09:29:46;;;;;;;3.58;0.60;;;12.30;58.00;;;;;;4973511;28;20501;-86
2021/10/19 09:32:13;;;;;;;3.83;0.75;;;12.30;57.50;;;;;;5004744;28;20042;-83
2021/10/19 09:34:41;;;;;;;1.27;0.75;;;12.30;58.00;;;;;;5004664;28;20823;-83
2021/10/19 09:37:10;;;;;;;2.38;1.10;;;12.40;59.10;;;;;;5004710;28;20054;-83
2021/10/19 09:39:40;;;;;;;6.63;1.27;;;12.40;60.70;;;;;;4987460;28;20033;-83
2021/10/19 09:42:17;;;;;;;2.00;0.68;;;12.50;62.30;;;;;;5003045;28;20033;-83
2021/10/19 09:44:57;;;;;;;1.77;1.17;;;12.60;62.00;;;;;;4986763;28;20038;-83
2021/10/19 09:47:42;;;;;;;20.80;1.75;;;12.70;60.60;;;;;;4987845;28;20034;-84
2021/10/19 09:50:09;;;;;;;2.40;0.90;;;12.80;60.00;;;;;;5004801;28;20048;-83
2021/10/19 09:52:39;;;;;;;3.85;0.70;;;12.90;59.30;;;;;;4997890;28;20724;-83
2021/10/19 09:55:09;;;;;;;3.22;1.00;;;12.90;59.30;;;;;;4986701;28;20038;-85
2021/10/19 09:57:38;;;;;;;4.55;1.08;;;12.90;59.50;;;;;;4959319;28;20531;-82
2021/10/19 10:00:05;;;;;;;2.08;0.80;;;12.90;58.80;;;;;;5004243;28;20546;-83
2021/10/19 10:02:38;;;;;;;4.95;1.30;;;12.90;58.70;;;;;;5003229;28;20084;-83
2021/10/19 10:05:06;;;;;;;6.25;0.90;;;12.90;59.60;;;;;;4989067;28;20057;-84
2021/10/19 10:07:39;;;;;;;2.10;0.80;;;12.90;60.20;;;;;;5002978;28;20040;-82
2021/10/19 10:10:06;;;;;;;2.45;1.10;;;12.90;60.90;;;;;;5003384;28;20040;-80
2021/10/19 10:12:34;;;;;;;3.30;0.80;;;12.90;61.60;;;;;;5003672;28;20037;-83
2021/10/19 10:15:00;;;;;;;1.45;0.93;;;12.90;61.20;;;;;;5002427;28;20069;-81
2021/10/19 10:17:26;;;;;;;4.10;1.30;;;12.90;60.80;;;;;;5002824;28;20424;-82
2021/10/19 10:19:53;;;;;;;1.35;0.75;;;12.90;60.90;;;;;;5004467;28;20034;-82
2021/10/19 10:22:25;;;;;;;0.75;0.75;;;12.80;60.70;;;;;;5005571;28;21882;-82
2021/10/19 10:25:03;;;;;;;3.03;1.10;;;12.90;60.60;;;;;;5013554;28;20045;-82
2021/10/19 10:27:29;;;;;;;2.15;0.82;;;12.90;60.10;;;;;;4988795;28;20041;-84
2021/10/19 10:29:55;;;;;;;3.03;0.70;;;12.90;60.20;;;;;;5005209;28;20112;-86
2021/10/19 10:32:28;;;;;;;3.47;0.88;;;12.90;60.20;;;;;;4986246;28;20026;-81
2021/10/19 10:35:11;;;;;;;1.75;1.05;;;12.90;60.40;;;;;;5004519;28;20096;-84
2021/10/19 10:37:45;;;;;;;2.78;0.73;;;12.90;60.60;;;;;;5001426;28;20057;-83
2021/10/19 10:40:25;;;;;;;2.55;0.70;;;12.90;60.60;;;;;;5003617;28;20041;-83
2021/10/19 10:42:51;;;;;;;1.48;0.88;;;12.90;61.40;;;;;;4984816;28;20043;-83
2021/10/19 10:45:31;;;;;;;2.65;1.02;;;12.90;61.00;;;;;;4985671;28;20747;-84
2021/10/19 10:48:00;;;;;;;3.10;0.90;;;12.90;60.90;;;;;;5004402;28;20398;-83
2021/10/19 10:50:27;;;;;;;0.82;0.70;;;12.90;60.60;;;;;;4985455;28;20038;-83
2021/10/19 10:53:08;;;;;;;3.13;0.80;;;13.00;61.20;;;;;;5000867;28;20073;-83
2021/10/19 10:55:51;;;;;;;4.18;0.90;;;13.00;61.00;;;;;;4984659;28;20045;-83
2021/10/19 10:58:32;;;;;;;2.15;0.80;;;13.00;61.00;;;;;;4987493;28;20259;-82
2021/10/19 11:01:00;;;;;;;0.75;0.73;;;13.00;60.30;;;;;;5004538;28;20041;-83
2021/10/19 11:03:26;;;;;;;2.13;0.68;;;13.00;59.70;;;;;;4972837;28;20092;-82
2021/10/19 11:05:57;;;;;;;1.85;0.80;;;13.00;59.10;;;;;;5000378;28;20034;-83
2021/10/19 11:08:28;;;;;;;1.48;0.90;;;13.00;59.30;;;;;;5000508;28;20129;-82
2021/10/19 11:11:20;;;;;;;1.40;0.80;;;13.00;59.00;;;;;;5002607;28;20412;-86
2021/10/19 11:13:54;;;;;;;1.65;0.90;;;13.00;58.80;;;;;;4967527;28;20037;-85
2021/10/19 11:16:39;;;;;;;2.42;0.90;;;12.90;58.60;;;;;;4968995;28;20476;-82
2021/10/19 11:19:32;;;;;;;1.50;0.90;;;12.90;59.00;;;;;;5001019;28;20033;-82
2021/10/19 11:22:04;;;;;;;3.30;1.38;;;13.00;59.30;;;;;;4990111;28;20128;-82
2021/10/19 11:24:33;;;;;;;2.33;1.13;;;12.90;58.80;;;;;;5001441;28;20125;-82
2021/10/19 11:27:03;;;;;;;1.92;1.02;;;12.90;58.60;;;;;;4968019;28;20038;-82
2021/10/19 11:29:36;;;;;;;0.95;0.90;;;12.90;58.90;;;;;;5001745;28;20124;-82
2021/10/19 11:32:03;;;;;;;1.10;0.90;;;12.90;59.10;;;;;;4999817;28;20065;-82
2021/10/19 11:34:29;;;;;;;1.67;0.68;;;12.90;59.80;;;;;;4984754;28;20025;-82
2021/10/19 11:36:55;;;;;;;1.60;0.80;;;12.90;59.90;;;;;;4979100;28;20030;-82
2021/10/19 11:39:21;;;;;;;1.08;0.50;;;12.90;59.50;;;;;;4985639;28;20041;-83
2021/10/19 11:41:53;;;;;;;2.40;0.70;;;12.90;59.30;;;;;;5000999;28;20026;-83
2021/10/19 11:44:19;;;;;;;2.67;0.90;;;12.90;59.20;;;;;;4998817;28;20045;-82
2021/10/19 11:46:45;;;;;;;1.42;0.57;;;12.90;59.30;;;;;;4985797;28;20026;-81
2021/10/19 11:49:16;;;;;;;2.75;0.77;;;12.90;59.20;;;;;;5003240;28;20036;-82
2021/10/19 11:51:51;;;;;;;0.60;0.60;;;13.00;58.40;;;;;;5000626;28;20042;-81
2021/10/19 11:54:19;;;;;;;1.60;0.57;;;13.00;58.10;;;;;;4998780;28;20049;-81
2021/10/19 11:56:58;;;;;;;1.42;0.80;;;12.90;58.30;;;;;;5002571;28;20057;-80
2021/10/19 11:59:24;;;;;;;0.85;0.75;;;13.00;58.30;;;;;;4965488;28;20030;-85
2021/10/19 12:01:53;;;;;;;1.38;0.52;;;13.00;58.10;;;;;;4996042;28;20052;-88
2021/10/19 12:04:24;;;;;;;1.45;0.70;;;13.00;57.90;;;;;;5003837;28;20038;-84
2021/10/19 12:06:51;;;;;;;2.38;0.80;;;13.00;57.60;;;;;;5001648;28;20401;-82
2021/10/19 12:09:18;;;;;;;1.27;0.73;;;13.00;57.60;;;;;;4985956;28;20038;-85
2021/10/19 12:11:48;;;;;;;0.45;0.45;;;13.00;57.60;;;;;;5003410;28;20030;-82
2021/10/19 12:14:13;;;;;;;0.73;0.60;;;12.90;57.60;;;;;;4988364;28;20121;-85
2021/10/19 12:16:39;;;;;;;2.15;0.60;;;13.00;57.50;;;;;;5001037;28;20141;-84
2021/10/19 12:19:05;;;;;;;0.73;0.60;;;13.00;57.90;;;;;;4984964;28;20036;-84
2021/10/19 12:21:34;;;;;;;0.68;0.52;;;13.00;57.60;;;;;;5011845;28;20037;-85
2021/10/19 12:24:03;;;;;;;1.77;0.80;;;13.00;57.80;;;;;;4974837;28;20539;-86
2021/10/19 12:26:31;;;;;;;0.93;0.70;;;13.00;57.30;;;;;;4989490;28;20033;-87
2021/10/19 12:29:03;;;;;;;2.05;0.80;;;12.90;57.40;;;;;;5003865;28;20038;-86
2021/10/19 12:31:30;;;;;;;1.73;0.80;;;12.90;56.30;;;;;;4974512;28;20513;-82
2021/10/19 12:34:02;;;;;;;4.45;0.98;;;12.90;55.40;;;;;;4980164;28;20026;-85
2021/10/19 12:36:36;;;;;;;1.50;0.85;;;12.80;55.20;;;;;;4982084;28;20095;-87
2021/10/19 12:39:13;;;;;;;0.60;0.50;;;12.80;54.90;;;;;;4995057;28;20053;-85
2021/10/19 12:41:40;;;;;;;2.72;0.88;;;12.70;54.60;;;;;;4993978;28;20052;-85
2021/10/19 12:44:11;;;;;;;1.48;0.80;;;12.60;54.60;;;;;;4994552;28;20030;-84
2021/10/19 12:46:37;;;;;;;3.13;0.65;;;12.60;54.30;;;;;;4998302;28;20126;-84
2021/10/19 12:49:05;;;;;;;1.33;0.60;;;12.50;54.40;;;;;;4989211;28;20112;-83
2021/10/19 12:51:31;;;;;;;3.53;1.00;;;12.50;54.20;;;;;;4983718;28;20034;-84